sensor_id;sensor_type;location;lat;lon;timestamp;P1;durP1;ratioP1;P2;durP2;ratioP2
5904;SDS011;2978;42.012;24.880;2023-08-21T00:01:20;9.73;;;5.43;;
5904;SDS011;2978;42.012;24.880;2023-08-21T00:03:45;8.83;;;5.07;;
5904;SDS011;2978;42.012;24.880;2023-08-21T00:06:11;14.13;;;5.47;;
5904;SDS011;2978;42.012;24.880;2023-08-21T00:08:36;11.73;;;6.13;;
5904;SDS011;2978;42.012;24.880;2023-08-21T00:11:02;14.50;;;6.37;;
5904;SDS011;2978;42.012;24.880;2023-08-21T00:13:28;16.37;;;5.60;;
5904;SDS011;2978;42.012;24.880;2023-08-21T00:15:53;10.03;;;5.43;;
5904;SDS011;2978;42.012;24.880;2023-08-21T00:18:20;9.17;;;5.47;;
5904;SDS011;2978;42.012;24.880;2023-08-21T00:20:45;9.37;;;5.00;;
5904;SDS011;2978;42.012;24.880;2023-08-21T00:23:11;7.33;;;4.50;;
5904;SDS011;2978;42.012;24.880;2023-08-21T00:25:36;11.07;;;5.10;;
5904;SDS011;2978;42.012;24.880;2023-08-21T00:28:02;11.40;;;5.60;;
5904;SDS011;2978;42.012;24.880;2023-08-21T00:30:28;10.63;;;5.73;;
5904;SDS011;2978;42.012;24.880;2023-08-21T00:32:53;12.80;;;5.90;;
5904;SDS011;2978;42.012;24.880;2023-08-21T00:35:19;11.03;;;4.70;;
5904;SDS011;2978;42.012;24.880;2023-08-21T00:37:44;8.07;;;5.07;;
5904;SDS011;2978;42.012;24.880;2023-08-21T00:40:10;11.73;;;5.60;;
5904;SDS011;2978;42.012;24.880;2023-08-21T00:42:35;7.97;;;5.33;;
5904;SDS011;2978;42.012;24.880;2023-08-21T00:45:01;6.90;;;5.20;;
5904;SDS011;2978;42.012;24.880;2023-08-21T00:47:27;8.47;;;5.53;;
5904;SDS011;2978;42.012;24.880;2023-08-21T00:49:52;9.30;;;6.07;;
5904;SDS011;2978;42.012;24.880;2023-08-21T00:52:18;6.43;;;5.07;;
5904;SDS011;2978;42.012;24.880;2023-08-21T00:54:43;15.10;;;5.30;;
5904;SDS011;2978;42.012;24.880;2023-08-21T00:57:10;18.63;;;5.63;;
5904;SDS011;2978;42.012;24.880;2023-08-21T00:59:36;12.43;;;5.43;;
5904;SDS011;2978;42.012;24.880;2023-08-21T01:02:03;10.60;;;4.90;;
5904;SDS011;2978;42.012;24.880;2023-08-21T01:04:28;22.23;;;5.27;;
5904;SDS011;2978;42.012;24.880;2023-08-21T01:06:54;11.20;;;5.70;;
5904;SDS011;2978;42.012;24.880;2023-08-21T01:17:05;6.97;;;4.70;;
5904;SDS011;2978;42.012;24.880;2023-08-21T01:19:40;11.60;;;4.97;;
5904;SDS011;2978;42.012;24.880;2023-08-21T01:22:05;9.90;;;5.47;;
5904;SDS011;2978;42.012;24.880;2023-08-21T01:24:31;9.40;;;5.20;;
5904;SDS011;2978;42.012;24.880;2023-08-21T01:26:56;12.50;;;5.43;;
5904;SDS011;2978;42.012;24.880;2023-08-21T01:29:22;8.13;;;5.53;;
5904;SDS011;2978;42.012;24.880;2023-08-21T01:31:50;9.07;;;6.13;;
5904;SDS011;2978;42.012;24.880;2023-08-21T01:34:17;8.07;;;5.67;;
5904;SDS011;2978;42.012;24.880;2023-08-21T01:36:43;8.33;;;5.60;;
5904;SDS011;2978;42.012;24.880;2023-08-21T01:39:08;6.97;;;5.30;;
5904;SDS011;2978;42.012;24.880;2023-08-21T01:41:34;13.03;;;6.07;;
5904;SDS011;2978;42.012;24.880;2023-08-21T01:43:59;27.47;;;5.50;;
5904;SDS011;2978;42.012;24.880;2023-08-21T01:46:24;15.37;;;5.97;;
5904;SDS011;2978;42.012;24.880;2023-08-21T01:48:50;9.60;;;5.40;;
5904;SDS011;2978;42.012;24.880;2023-08-21T01:51:15;11.23;;;6.47;;
5904;SDS011;2978;42.012;24.880;2023-08-21T01:53:40;10.53;;;5.37;;
5904;SDS011;2978;42.012;24.880;2023-08-21T01:56:06;8.70;;;5.60;;
5904;SDS011;2978;42.012;24.880;2023-08-21T01:58:31;7.13;;;5.10;;
5904;SDS011;2978;42.012;24.880;2023-08-21T02:00:56;11.07;;;5.60;;
5904;SDS011;2978;42.012;24.880;2023-08-21T02:03:24;9.53;;;5.80;;
5904;SDS011;2978;42.012;24.880;2023-08-21T02:05:50;6.97;;;5.47;;
5904;SDS011;2978;42.012;24.880;2023-08-21T02:08:16;14.23;;;5.97;;
5904;SDS011;2978;42.012;24.880;2023-08-21T02:10:48;12.00;;;6.23;;
5904;SDS011;2978;42.012;24.880;2023-08-21T02:13:13;7.77;;;5.53;;
5904;SDS011;2978;42.012;24.880;2023-08-21T02:15:39;10.90;;;5.53;;
5904;SDS011;2978;42.012;24.880;2023-08-21T02:18:04;8.83;;;5.50;;
5904;SDS011;2978;42.012;24.880;2023-08-21T02:20:29;6.53;;;5.30;;
5904;SDS011;2978;42.012;24.880;2023-08-21T02:22:55;14.80;;;5.20;;
5904;SDS011;2978;42.012;24.880;2023-08-21T02:25:20;11.37;;;5.33;;
5904;SDS011;2978;42.012;24.880;2023-08-21T02:27:45;16.37;;;6.70;;
5904;SDS011;2978;42.012;24.880;2023-08-21T02:30:11;8.83;;;6.30;;
5904;SDS011;2978;42.012;24.880;2023-08-21T02:32:36;14.03;;;5.67;;
5904;SDS011;2978;42.012;24.880;2023-08-21T02:35:03;17.23;;;6.07;;
5904;SDS011;2978;42.012;24.880;2023-08-21T02:37:28;10.10;;;6.23;;
5904;SDS011;2978;42.012;24.880;2023-08-21T02:39:54;31.27;;;6.80;;
5904;SDS011;2978;42.012;24.880;2023-08-21T02:42:19;7.60;;;5.90;;
5904;SDS011;2978;42.012;24.880;2023-08-21T02:44:44;7.13;;;5.13;;
5904;SDS011;2978;42.012;24.880;2023-08-21T02:47:09;11.93;;;6.10;;
5904;SDS011;2978;42.012;24.880;2023-08-21T02:49:35;8.87;;;5.70;;
5904;SDS011;2978;42.012;24.880;2023-08-21T02:52:00;9.77;;;5.90;;
5904;SDS011;2978;42.012;24.880;2023-08-21T02:54:25;9.43;;;5.37;;
5904;SDS011;2978;42.012;24.880;2023-08-21T02:56:50;20.43;;;6.10;;
5904;SDS011;2978;42.012;24.880;2023-08-21T02:59:16;15.40;;;5.67;;
5904;SDS011;2978;42.012;24.880;2023-08-21T03:01:41;17.20;;;5.83;;
5904;SDS011;2978;42.012;24.880;2023-08-21T03:04:06;8.83;;;5.60;;
5904;SDS011;2978;42.012;24.880;2023-08-21T03:06:31;10.17;;;6.23;;
5904;SDS011;2978;42.012;24.880;2023-08-21T03:08:57;11.60;;;5.57;;
5904;SDS011;2978;42.012;24.880;2023-08-21T03:11:22;13.90;;;6.10;;
5904;SDS011;2978;42.012;24.880;2023-08-21T03:13:47;6.43;;;5.43;;
5904;SDS011;2978;42.012;24.880;2023-08-21T03:16:12;16.87;;;5.27;;
5904;SDS011;2978;42.012;24.880;2023-08-21T03:18:53;9.40;;;5.97;;
5904;SDS011;2978;42.012;24.880;2023-08-21T03:21:18;8.63;;;6.00;;
5904;SDS011;2978;42.012;24.880;2023-08-21T03:23:44;7.13;;;5.33;;
5904;SDS011;2978;42.012;24.880;2023-08-21T03:26:09;9.83;;;5.70;;
5904;SDS011;2978;42.012;24.880;2023-08-21T03:28:34;12.70;;;6.40;;
5904;SDS011;2978;42.012;24.880;2023-08-21T03:30:59;9.73;;;5.00;;
5904;SDS011;2978;42.012;24.880;2023-08-21T03:33:25;10.73;;;5.37;;
5904;SDS011;2978;42.012;24.880;2023-08-21T03:35:53;9.40;;;6.00;;
5904;SDS011;2978;42.012;24.880;2023-08-21T03:38:18;9.73;;;5.30;;
5904;SDS011;2978;42.012;24.880;2023-08-21T03:40:43;14.30;;;6.10;;
5904;SDS011;2978;42.012;24.880;2023-08-21T03:43:09;13.43;;;5.80;;
5904;SDS011;2978;42.012;24.880;2023-08-21T03:45:34;16.80;;;6.30;;
5904;SDS011;2978;42.012;24.880;2023-08-21T03:47:59;11.67;;;5.70;;
5904;SDS011;2978;42.012;24.880;2023-08-21T03:50:24;7.47;;;6.00;;
5904;SDS011;2978;42.012;24.880;2023-08-21T03:52:50;12.00;;;6.20;;
5904;SDS011;2978;42.012;24.880;2023-08-21T03:55:15;10.20;;;5.33;;
5904;SDS011;2978;42.012;24.880;2023-08-21T03:57:40;19.53;;;6.80;;
5904;SDS011;2978;42.012;24.880;2023-08-21T04:00:05;12.80;;;6.23;;
5904;SDS011;2978;42.012;24.880;2023-08-21T04:02:33;17.77;;;5.03;;
5904;SDS011;2978;42.012;24.880;2023-08-21T04:04:58;16.30;;;5.00;;
5904;SDS011;2978;42.012;24.880;2023-08-21T04:07:23;13.13;;;6.27;;
5904;SDS011;2978;42.012;24.880;2023-08-21T04:09:48;20.60;;;6.13;;
5904;SDS011;2978;42.012;24.880;2023-08-21T04:12:13;7.40;;;5.13;;
5904;SDS011;2978;42.012;24.880;2023-08-21T04:14:39;7.50;;;5.30;;
5904;SDS011;2978;42.012;24.880;2023-08-21T04:17:04;8.10;;;5.40;;
5904;SDS011;2978;42.012;24.880;2023-08-21T04:19:29;8.90;;;5.57;;
5904;SDS011;2978;42.012;24.880;2023-08-21T04:21:57;9.23;;;5.30;;
5904;SDS011;2978;42.012;24.880;2023-08-21T04:24:24;7.50;;;5.10;;
5904;SDS011;2978;42.012;24.880;2023-08-21T04:26:49;7.37;;;5.03;;
5904;SDS011;2978;42.012;24.880;2023-08-21T04:29:14;12.20;;;5.87;;
5904;SDS011;2978;42.012;24.880;2023-08-21T04:31:39;19.87;;;5.50;;
5904;SDS011;2978;42.012;24.880;2023-08-21T04:34:05;12.13;;;4.80;;
5904;SDS011;2978;42.012;24.880;2023-08-21T04:36:30;11.10;;;5.00;;
5904;SDS011;2978;42.012;24.880;2023-08-21T04:38:56;9.17;;;4.90;;
5904;SDS011;2978;42.012;24.880;2023-08-21T04:41:21;14.77;;;5.30;;
5904;SDS011;2978;42.012;24.880;2023-08-21T04:43:46;23.83;;;5.30;;
5904;SDS011;2978;42.012;24.880;2023-08-21T04:46:11;12.03;;;5.10;;
5904;SDS011;2978;42.012;24.880;2023-08-21T04:48:37;7.40;;;5.27;;
5904;SDS011;2978;42.012;24.880;2023-08-21T04:51:02;11.57;;;5.17;;
5904;SDS011;2978;42.012;24.880;2023-08-21T04:53:27;16.17;;;4.90;;
5904;SDS011;2978;42.012;24.880;2023-08-21T04:55:52;10.20;;;5.00;;
5904;SDS011;2978;42.012;24.880;2023-08-21T04:58:18;16.40;;;5.80;;
5904;SDS011;2978;42.012;24.880;2023-08-21T05:00:44;20.23;;;5.40;;
5904;SDS011;2978;42.012;24.880;2023-08-21T05:03:09;8.83;;;5.20;;
5904;SDS011;2978;42.012;24.880;2023-08-21T05:05:35;11.80;;;5.03;;
5904;SDS011;2978;42.012;24.880;2023-08-21T05:08:00;8.87;;;5.17;;
5904;SDS011;2978;42.012;24.880;2023-08-21T05:10:25;9.73;;;4.90;;
5904;SDS011;2978;42.012;24.880;2023-08-21T05:12:51;8.87;;;4.70;;
5904;SDS011;2978;42.012;24.880;2023-08-21T05:15:16;6.90;;;4.80;;
5904;SDS011;2978;42.012;24.880;2023-08-21T05:17:41;8.87;;;4.30;;
5904;SDS011;2978;42.012;24.880;2023-08-21T05:20:07;11.43;;;5.00;;
5904;SDS011;2978;42.012;24.880;2023-08-21T05:22:32;8.20;;;4.70;;
5904;SDS011;2978;42.012;24.880;2023-08-21T05:24:57;31.93;;;5.23;;
5904;SDS011;2978;42.012;24.880;2023-08-21T05:27:22;24.23;;;5.63;;
5904;SDS011;2978;42.012;24.880;2023-08-21T05:29:48;8.33;;;4.97;;
5904;SDS011;2978;42.012;24.880;2023-08-21T05:32:16;11.63;;;4.43;;
5904;SDS011;2978;42.012;24.880;2023-08-21T05:34:41;13.23;;;5.00;;
5904;SDS011;2978;42.012;24.880;2023-08-21T05:37:06;14.73;;;5.13;;
5904;SDS011;2978;42.012;24.880;2023-08-21T05:39:32;10.70;;;4.50;;
5904;SDS011;2978;42.012;24.880;2023-08-21T05:41:57;15.67;;;4.80;;
5904;SDS011;2978;42.012;24.880;2023-08-21T05:44:23;31.77;;;5.50;;
5904;SDS011;2978;42.012;24.880;2023-08-21T05:46:49;10.97;;;4.33;;
5904;SDS011;2978;42.012;24.880;2023-08-21T05:49:14;8.47;;;4.40;;
5904;SDS011;2978;42.012;24.880;2023-08-21T05:51:39;13.23;;;4.70;;
5904;SDS011;2978;42.012;24.880;2023-08-21T05:54:04;9.10;;;4.53;;
5904;SDS011;2978;42.012;24.880;2023-08-21T05:56:30;11.03;;;4.80;;
5904;SDS011;2978;42.012;24.880;2023-08-21T05:58:55;10.13;;;4.63;;
5904;SDS011;2978;42.012;24.880;2023-08-21T06:01:20;9.40;;;4.57;;
5904;SDS011;2978;42.012;24.880;2023-08-21T06:03:45;10.30;;;4.87;;
5904;SDS011;2978;42.012;24.880;2023-08-21T06:06:11;8.83;;;4.30;;
5904;SDS011;2978;42.012;24.880;2023-08-21T06:08:36;12.13;;;5.10;;
5904;SDS011;2978;42.012;24.880;2023-08-21T06:11:01;8.30;;;4.70;;
5904;SDS011;2978;42.012;24.880;2023-08-21T06:13:26;7.87;;;4.40;;
5904;SDS011;2978;42.012;24.880;2023-08-21T06:15:52;7.23;;;4.90;;
5904;SDS011;2978;42.012;24.880;2023-08-21T06:18:18;6.40;;;4.27;;
5904;SDS011;2978;42.012;24.880;2023-08-21T06:20:43;12.10;;;4.73;;
5904;SDS011;2978;42.012;24.880;2023-08-21T06:23:11;8.30;;;4.63;;
5904;SDS011;2978;42.012;24.880;2023-08-21T06:25:37;11.03;;;4.47;;
5904;SDS011;2978;42.012;24.880;2023-08-21T06:28:02;10.70;;;4.57;;
5904;SDS011;2978;42.012;24.880;2023-08-21T06:30:28;14.37;;;4.60;;
5904;SDS011;2978;42.012;24.880;2023-08-21T06:32:53;11.20;;;4.50;;
5904;SDS011;2978;42.012;24.880;2023-08-21T06:35:19;10.80;;;4.77;;
5904;SDS011;2978;42.012;24.880;2023-08-21T06:37:44;10.53;;;4.20;;
5904;SDS011;2978;42.012;24.880;2023-08-21T06:40:09;10.20;;;4.00;;
5904;SDS011;2978;42.012;24.880;2023-08-21T06:42:36;7.63;;;4.90;;
5904;SDS011;2978;42.012;24.880;2023-08-21T06:45:02;7.63;;;5.00;;
5904;SDS011;2978;42.012;24.880;2023-08-21T06:47:28;6.77;;;3.80;;
5904;SDS011;2978;42.012;24.880;2023-08-21T06:49:53;9.27;;;4.33;;
5904;SDS011;2978;42.012;24.880;2023-08-21T06:52:19;11.80;;;4.67;;
5904;SDS011;2978;42.012;24.880;2023-08-21T06:54:44;8.63;;;4.20;;
5904;SDS011;2978;42.012;24.880;2023-08-21T06:57:09;9.90;;;5.10;;
5904;SDS011;2978;42.012;24.880;2023-08-21T06:59:34;9.13;;;4.53;;
5904;SDS011;2978;42.012;24.880;2023-08-21T07:02:01;14.93;;;5.03;;
5904;SDS011;2978;42.012;24.880;2023-08-21T07:04:27;17.07;;;5.60;;
5904;SDS011;2978;42.012;24.880;2023-08-21T07:06:52;11.03;;;4.27;;
5904;SDS011;2978;42.012;24.880;2023-08-21T07:09:18;18.53;;;4.90;;
5904;SDS011;2978;42.012;24.880;2023-08-21T07:11:43;12.23;;;5.10;;
5904;SDS011;2978;42.012;24.880;2023-08-21T07:14:08;7.50;;;4.87;;
5904;SDS011;2978;42.012;24.880;2023-08-21T07:16:34;9.73;;;4.60;;
5904;SDS011;2978;42.012;24.880;2023-08-21T07:18:59;7.40;;;4.27;;
5904;SDS011;2978;42.012;24.880;2023-08-21T07:21:24;7.93;;;4.23;;
5904;SDS011;2978;42.012;24.880;2023-08-21T07:23:50;13.67;;;4.40;;
5904;SDS011;2978;42.012;24.880;2023-08-21T07:26:15;10.30;;;4.10;;
5904;SDS011;2978;42.012;24.880;2023-08-21T07:28:40;15.63;;;4.60;;
5904;SDS011;2978;42.012;24.880;2023-08-21T07:31:06;11.47;;;4.90;;
5904;SDS011;2978;42.012;24.880;2023-08-21T07:33:31;11.07;;;4.73;;
5904;SDS011;2978;42.012;24.880;2023-08-21T07:35:57;16.23;;;5.70;;
5904;SDS011;2978;42.012;24.880;2023-08-21T07:38:22;14.50;;;5.50;;
5904;SDS011;2978;42.012;24.880;2023-08-21T07:40:47;10.53;;;4.80;;
5904;SDS011;2978;42.012;24.880;2023-08-21T07:43:13;17.10;;;5.03;;
5904;SDS011;2978;42.012;24.880;2023-08-21T07:45:38;8.30;;;4.60;;
5904;SDS011;2978;42.012;24.880;2023-08-21T07:48:03;9.50;;;5.17;;
5904;SDS011;2978;42.012;24.880;2023-08-21T07:50:30;17.70;;;5.07;;
5904;SDS011;2978;42.012;24.880;2023-08-21T07:52:55;17.30;;;5.17;;
5904;SDS011;2978;42.012;24.880;2023-08-21T07:55:20;15.23;;;5.50;;
5904;SDS011;2978;42.012;24.880;2023-08-21T07:57:45;24.17;;;4.60;;
5904;SDS011;2978;42.012;24.880;2023-08-21T08:00:11;7.43;;;3.37;;
5904;SDS011;2978;42.012;24.880;2023-08-21T08:02:37;11.07;;;3.90;;
5904;SDS011;2978;42.012;24.880;2023-08-21T08:05:02;6.10;;;3.40;;
5904;SDS011;2978;42.012;24.880;2023-08-21T08:07:28;8.20;;;3.47;;
5904;SDS011;2978;42.012;24.880;2023-08-21T08:09:53;8.20;;;4.00;;
5904;SDS011;2978;42.012;24.880;2023-08-21T08:12:19;17.17;;;4.07;;
5904;SDS011;2978;42.012;24.880;2023-08-21T08:14:44;6.67;;;3.40;;
5904;SDS011;2978;42.012;24.880;2023-08-21T08:17:09;7.57;;;3.10;;
5904;SDS011;2978;42.012;24.880;2023-08-21T08:19:34;9.27;;;4.40;;
5904;SDS011;2978;42.012;24.880;2023-08-21T08:22:00;6.30;;;3.53;;
5904;SDS011;2978;42.012;24.880;2023-08-21T08:24:25;11.93;;;3.87;;
5904;SDS011;2978;42.012;24.880;2023-08-21T08:26:50;7.57;;;3.63;;
5904;SDS011;2978;42.012;24.880;2023-08-21T08:29:15;9.50;;;3.40;;
5904;SDS011;2978;42.012;24.880;2023-08-21T08:31:41;11.70;;;3.83;;
5904;SDS011;2978;42.012;24.880;2023-08-21T08:34:06;11.00;;;3.57;;
5904;SDS011;2978;42.012;24.880;2023-08-21T08:36:31;13.43;;;3.97;;
5904;SDS011;2978;42.012;24.880;2023-08-21T08:38:56;13.93;;;3.57;;
5904;SDS011;2978;42.012;24.880;2023-08-21T08:41:25;13.83;;;3.73;;
5904;SDS011;2978;42.012;24.880;2023-08-21T08:43:53;13.83;;;3.70;;
5904;SDS011;2978;42.012;24.880;2023-08-21T08:46:21;10.23;;;3.90;;
5904;SDS011;2978;42.012;24.880;2023-08-21T08:48:48;12.60;;;4.13;;
5904;SDS011;2978;42.012;24.880;2023-08-21T08:51:13;11.30;;;3.43;;
5904;SDS011;2978;42.012;24.880;2023-08-21T08:53:39;11.83;;;3.37;;
5904;SDS011;2978;42.012;24.880;2023-08-21T08:56:04;8.13;;;3.53;;
5904;SDS011;2978;42.012;24.880;2023-08-21T08:58:29;6.13;;;3.77;;
5904;SDS011;2978;42.012;24.880;2023-08-21T09:00:55;15.67;;;3.60;;
5904;SDS011;2978;42.012;24.880;2023-08-21T09:03:20;7.73;;;3.83;;
5904;SDS011;2978;42.012;24.880;2023-08-21T09:05:45;10.53;;;3.50;;
5904;SDS011;2978;42.012;24.880;2023-08-21T09:08:13;7.37;;;3.20;;
5904;SDS011;2978;42.012;24.880;2023-08-21T09:10:39;5.27;;;4.00;;
5904;SDS011;2978;42.012;24.880;2023-08-21T09:13:17;11.53;;;4.43;;
5904;SDS011;2978;42.012;24.880;2023-08-21T09:15:46;5.37;;;3.37;;
5904;SDS011;2978;42.012;24.880;2023-08-21T09:18:12;15.87;;;4.10;;
5904;SDS011;2978;42.012;24.880;2023-08-21T09:20:38;6.67;;;3.47;;
5904;SDS011;2978;42.012;24.880;2023-08-21T09:23:03;6.30;;;3.67;;
5904;SDS011;2978;42.012;24.880;2023-08-21T09:25:33;8.10;;;3.50;;
5904;SDS011;2978;42.012;24.880;2023-08-21T09:27:58;5.63;;;3.60;;
5904;SDS011;2978;42.012;24.880;2023-08-21T09:30:24;6.10;;;3.50;;
5904;SDS011;2978;42.012;24.880;2023-08-21T09:35:17;9.10;;;3.33;;
5904;SDS011;2978;42.012;24.880;2023-08-21T09:37:43;10.63;;;4.37;;
5904;SDS011;2978;42.012;24.880;2023-08-21T09:40:11;6.60;;;3.60;;
5904;SDS011;2978;42.012;24.880;2023-08-21T09:42:36;7.10;;;3.40;;
5904;SDS011;2978;42.012;24.880;2023-08-21T09:45:04;10.53;;;3.63;;
5904;SDS011;2978;42.012;24.880;2023-08-21T09:47:29;8.10;;;2.73;;
5904;SDS011;2978;42.012;24.880;2023-08-21T09:49:55;9.53;;;3.30;;
5904;SDS011;2978;42.012;24.880;2023-08-21T09:52:20;5.70;;;3.40;;
5904;SDS011;2978;42.012;24.880;2023-08-21T09:54:46;7.73;;;3.13;;
5904;SDS011;2978;42.012;24.880;2023-08-21T09:57:11;15.43;;;4.13;;
5904;SDS011;2978;42.012;24.880;2023-08-21T09:59:37;8.00;;;3.70;;
5904;SDS011;2978;42.012;24.880;2023-08-21T10:02:05;5.17;;;3.70;;
5904;SDS011;2978;42.012;24.880;2023-08-21T10:04:31;9.90;;;3.90;;
5904;SDS011;2978;42.012;24.880;2023-08-21T10:06:58;10.87;;;3.60;;
5904;SDS011;2978;42.012;24.880;2023-08-21T10:09:23;7.07;;;3.87;;
5904;SDS011;2978;42.012;24.880;2023-08-21T10:11:49;8.07;;;3.80;;
5904;SDS011;2978;42.012;24.880;2023-08-21T10:14:14;6.53;;;3.50;;
5904;SDS011;2978;42.012;24.880;2023-08-21T10:16:40;8.93;;;3.57;;
5904;SDS011;2978;42.012;24.880;2023-08-21T10:19:06;5.03;;;3.03;;
5904;SDS011;2978;42.012;24.880;2023-08-21T10:21:34;8.00;;;3.10;;
5904;SDS011;2978;42.012;24.880;2023-08-21T10:24:03;23.27;;;3.47;;
5904;SDS011;2978;42.012;24.880;2023-08-21T10:26:28;7.53;;;3.90;;
5904;SDS011;2978;42.012;24.880;2023-08-21T10:28:54;10.50;;;3.20;;
5904;SDS011;2978;42.012;24.880;2023-08-21T10:31:33;6.53;;;3.00;;
5904;SDS011;2978;42.012;24.880;2023-08-21T10:34:00;7.43;;;3.70;;
5904;SDS011;2978;42.012;24.880;2023-08-21T10:39:16;9.97;;;3.70;;
5904;SDS011;2978;42.012;24.880;2023-08-21T10:41:52;9.97;;;3.27;;
5904;SDS011;2978;42.012;24.880;2023-08-21T10:44:17;6.87;;;3.40;;
5904;SDS011;2978;42.012;24.880;2023-08-21T10:47:12;7.50;;;3.80;;
5904;SDS011;2978;42.012;24.880;2023-08-21T10:49:38;4.90;;;3.53;;
5904;SDS011;2978;42.012;24.880;2023-08-21T10:52:03;5.13;;;3.60;;
5904;SDS011;2978;42.012;24.880;2023-08-21T10:54:28;8.50;;;3.63;;
5904;SDS011;2978;42.012;24.880;2023-08-21T10:57:07;8.50;;;3.13;;
5904;SDS011;2978;42.012;24.880;2023-08-21T10:59:32;7.73;;;3.30;;
5904;SDS011;2978;42.012;24.880;2023-08-21T11:01:58;5.60;;;3.37;;
5904;SDS011;2978;42.012;24.880;2023-08-21T11:04:24;13.27;;;3.53;;
5904;SDS011;2978;42.012;24.880;2023-08-21T11:06:50;15.90;;;4.27;;
5904;SDS011;2978;42.012;24.880;2023-08-21T11:09:16;5.40;;;3.47;;
5904;SDS011;2978;42.012;24.880;2023-08-21T11:11:43;8.13;;;3.07;;
5904;SDS011;2978;42.012;24.880;2023-08-21T11:14:08;6.10;;;3.63;;
5904;SDS011;2978;42.012;24.880;2023-08-21T11:16:33;8.10;;;3.60;;
5904;SDS011;2978;42.012;24.880;2023-08-21T11:19:02;8.60;;;3.57;;
5904;SDS011;2978;42.012;24.880;2023-08-21T11:21:30;12.13;;;3.90;;
5904;SDS011;2978;42.012;24.880;2023-08-21T11:23:55;6.97;;;3.77;;
5904;SDS011;2978;42.012;24.880;2023-08-21T11:26:21;20.53;;;3.40;;
5904;SDS011;2978;42.012;24.880;2023-08-21T11:28:46;7.00;;;3.73;;
5904;SDS011;2978;42.012;24.880;2023-08-21T11:31:12;13.10;;;3.00;;
5904;SDS011;2978;42.012;24.880;2023-08-21T11:33:38;7.37;;;3.10;;
5904;SDS011;2978;42.012;24.880;2023-08-21T11:36:06;8.80;;;3.20;;
5904;SDS011;2978;42.012;24.880;2023-08-21T11:38:31;6.37;;;3.10;;
5904;SDS011;2978;42.012;24.880;2023-08-21T11:40:57;6.57;;;3.13;;
5904;SDS011;2978;42.012;24.880;2023-08-21T11:43:43;7.03;;;3.33;;
5904;SDS011;2978;42.012;24.880;2023-08-21T11:46:09;14.77;;;3.57;;
5904;SDS011;2978;42.012;24.880;2023-08-21T11:48:37;9.70;;;3.23;;
5904;SDS011;2978;42.012;24.880;2023-08-21T11:51:02;17.90;;;3.60;;
5904;SDS011;2978;42.012;24.880;2023-08-21T11:53:35;11.00;;;3.43;;
5904;SDS011;2978;42.012;24.880;2023-08-21T11:56:01;6.63;;;2.83;;
5904;SDS011;2978;42.012;24.880;2023-08-21T11:58:26;6.93;;;2.67;;
5904;SDS011;2978;42.012;24.880;2023-08-21T12:00:52;5.80;;;2.83;;
5904;SDS011;2978;42.012;24.880;2023-08-21T12:03:18;6.87;;;3.10;;
5904;SDS011;2978;42.012;24.880;2023-08-21T12:05:43;7.30;;;2.97;;
5904;SDS011;2978;42.012;24.880;2023-08-21T12:08:09;5.70;;;2.83;;
5904;SDS011;2978;42.012;24.880;2023-08-21T12:10:34;12.57;;;3.10;;
5904;SDS011;2978;42.012;24.880;2023-08-21T12:12:59;8.67;;;3.10;;
5904;SDS011;2978;42.012;24.880;2023-08-21T12:15:25;4.80;;;2.63;;
5904;SDS011;2978;42.012;24.880;2023-08-21T12:17:50;6.23;;;2.97;;
5904;SDS011;2978;42.012;24.880;2023-08-21T12:20:15;8.30;;;2.90;;
5904;SDS011;2978;42.012;24.880;2023-08-21T12:22:41;4.90;;;2.53;;
5904;SDS011;2978;42.012;24.880;2023-08-21T12:25:09;7.93;;;3.10;;
5904;SDS011;2978;42.012;24.880;2023-08-21T12:27:38;18.80;;;3.10;;
5904;SDS011;2978;42.012;24.880;2023-08-21T12:30:04;4.33;;;2.80;;
5904;SDS011;2978;42.012;24.880;2023-08-21T12:32:29;6.27;;;3.23;;
5904;SDS011;2978;42.012;24.880;2023-08-21T12:34:54;11.83;;;2.67;;
5904;SDS011;2978;42.012;24.880;2023-08-21T12:37:20;8.90;;;3.20;;
5904;SDS011;2978;42.012;24.880;2023-08-21T12:39:45;7.77;;;3.17;;
5904;SDS011;2978;42.012;24.880;2023-08-21T12:42:10;5.60;;;2.73;;
5904;SDS011;2978;42.012;24.880;2023-08-21T12:44:36;8.80;;;3.03;;
5904;SDS011;2978;42.012;24.880;2023-08-21T12:47:01;5.73;;;2.97;;
5904;SDS011;2978;42.012;24.880;2023-08-21T12:49:27;4.47;;;3.20;;
5904;SDS011;2978;42.012;24.880;2023-08-21T12:51:52;4.33;;;3.13;;
5904;SDS011;2978;42.012;24.880;2023-08-21T12:54:18;11.97;;;4.00;;
5904;SDS011;2978;42.012;24.880;2023-08-21T12:56:43;15.90;;;4.23;;
5904;SDS011;2978;42.012;24.880;2023-08-21T12:59:09;11.83;;;2.97;;
5904;SDS011;2978;42.012;24.880;2023-08-21T13:01:34;5.50;;;3.23;;
5904;SDS011;2978;42.012;24.880;2023-08-21T13:04:01;12.50;;;3.03;;
5904;SDS011;2978;42.012;24.880;2023-08-21T13:06:26;16.47;;;3.00;;
5904;SDS011;2978;42.012;24.880;2023-08-21T13:08:52;6.30;;;3.20;;
5904;SDS011;2978;42.012;24.880;2023-08-21T13:11:17;9.47;;;3.30;;
5904;SDS011;2978;42.012;24.880;2023-08-21T13:13:42;12.47;;;3.47;;
5904;SDS011;2978;42.012;24.880;2023-08-21T13:16:08;14.83;;;3.40;;
5904;SDS011;2978;42.012;24.880;2023-08-21T13:18:33;7.77;;;2.83;;
5904;SDS011;2978;42.012;24.880;2023-08-21T13:20:58;5.57;;;2.53;;
5904;SDS011;2978;42.012;24.880;2023-08-21T13:23:23;5.90;;;2.70;;
5904;SDS011;2978;42.012;24.880;2023-08-21T13:25:49;8.00;;;3.00;;
5904;SDS011;2978;42.012;24.880;2023-08-21T13:28:14;6.37;;;3.07;;
5904;SDS011;2978;42.012;24.880;2023-08-21T13:30:39;6.90;;;3.37;;
5904;SDS011;2978;42.012;24.880;2023-08-21T13:33:05;11.30;;;3.87;;
5904;SDS011;2978;42.012;24.880;2023-08-21T13:35:30;8.13;;;3.00;;
5904;SDS011;2978;42.012;24.880;2023-08-21T13:37:56;5.47;;;3.10;;
5904;SDS011;2978;42.012;24.880;2023-08-21T13:40:21;9.03;;;3.57;;
5904;SDS011;2978;42.012;24.880;2023-08-21T13:42:47;11.73;;;3.60;;
5904;SDS011;2978;42.012;24.880;2023-08-21T13:45:13;7.83;;;3.23;;
5904;SDS011;2978;42.012;24.880;2023-08-21T13:47:42;6.23;;;3.17;;
5904;SDS011;2978;42.012;24.880;2023-08-21T13:50:07;9.90;;;3.40;;
5904;SDS011;2978;42.012;24.880;2023-08-21T13:52:33;6.83;;;2.73;;
5904;SDS011;2978;42.012;24.880;2023-08-21T13:54:59;9.03;;;4.20;;
5904;SDS011;2978;42.012;24.880;2023-08-21T13:57:25;12.50;;;3.70;;
5904;SDS011;2978;42.012;24.880;2023-08-21T13:59:50;6.77;;;3.70;;
5904;SDS011;2978;42.012;24.880;2023-08-21T14:02:15;4.20;;;3.00;;
5904;SDS011;2978;42.012;24.880;2023-08-21T14:04:40;5.70;;;3.23;;
5904;SDS011;2978;42.012;24.880;2023-08-21T14:07:06;9.03;;;2.83;;
5904;SDS011;2978;42.012;24.880;2023-08-21T14:09:31;11.50;;;3.87;;
5904;SDS011;2978;42.012;24.880;2023-08-21T14:11:56;9.10;;;3.47;;
5904;SDS011;2978;42.012;24.880;2023-08-21T14:14:21;5.07;;;2.90;;
5904;SDS011;2978;42.012;24.880;2023-08-21T14:16:47;8.10;;;2.90;;
5904;SDS011;2978;42.012;24.880;2023-08-21T14:19:12;11.70;;;3.33;;
5904;SDS011;2978;42.012;24.880;2023-08-21T14:21:37;7.60;;;3.77;;
5904;SDS011;2978;42.012;24.880;2023-08-21T14:24:02;8.77;;;3.00;;
5904;SDS011;2978;42.012;24.880;2023-08-21T14:26:28;8.40;;;3.10;;
5904;SDS011;2978;42.012;24.880;2023-08-21T14:28:53;7.70;;;3.30;;
5904;SDS011;2978;42.012;24.880;2023-08-21T14:31:19;7.00;;;2.90;;
5904;SDS011;2978;42.012;24.880;2023-08-21T14:33:44;8.33;;;3.40;;
5904;SDS011;2978;42.012;24.880;2023-08-21T14:36:10;6.20;;;2.77;;
5904;SDS011;2978;42.012;24.880;2023-08-21T14:38:35;9.00;;;2.77;;
5904;SDS011;2978;42.012;24.880;2023-08-21T14:41:00;9.40;;;2.80;;
5904;SDS011;2978;42.012;24.880;2023-08-21T14:43:25;9.73;;;2.77;;
5904;SDS011;2978;42.012;24.880;2023-08-21T14:45:51;7.70;;;3.20;;
5904;SDS011;2978;42.012;24.880;2023-08-21T14:48:17;9.87;;;2.97;;
5904;SDS011;2978;42.012;24.880;2023-08-21T14:50:42;7.93;;;3.00;;
5904;SDS011;2978;42.012;24.880;2023-08-21T14:53:07;11.00;;;3.60;;
5904;SDS011;2978;42.012;24.880;2023-08-21T14:55:33;8.93;;;3.33;;
5904;SDS011;2978;42.012;24.880;2023-08-21T14:57:58;8.13;;;3.43;;
5904;SDS011;2978;42.012;24.880;2023-08-21T15:00:23;12.13;;;3.50;;